sensor_id;sensor_type;location;lat;lon;timestamp;P1;durP1;ratioP1;P2;durP2;ratioP2
8562;SDS011;16392;52.508;13.468;2024-02-21T00:01:37;8.02;;;3.28;;
8562;SDS011;16392;52.508;13.468;2024-02-21T00:04:04;7.68;;;3.78;;
8562;SDS011;16392;52.508;13.468;2024-02-21T00:06:31;7.35;;;3.13;;
8562;SDS011;16392;52.508;13.468;2024-02-21T00:08:58;13.75;;;3.28;;
8562;SDS011;16392;52.508;13.468;2024-02-21T00:11:25;11.57;;;3.88;;
8562;SDS011;16392;52.508;13.468;2024-02-21T00:13:52;11.43;;;4.32;;
8562;SDS011;16392;52.508;13.468;2024-02-21T00:16:18;5.50;;;3.05;;
8562;SDS011;16392;52.508;13.468;2024-02-21T00:18:47;8.43;;;3.50;;
8562;SDS011;16392;52.508;13.468;2024-02-21T00:21:14;8.43;;;3.97;;
8562;SDS011;16392;52.508;13.468;2024-02-21T00:23:43;8.88;;;4.05;;
8562;SDS011;16392;52.508;13.468;2024-02-21T00:26:11;10.00;;;3.40;;
8562;SDS011;16392;52.508;13.468;2024-02-21T00:28:45;11.40;;;3.72;;
8562;SDS011;16392;52.508;13.468;2024-02-21T00:31:18;6.70;;;3.30;;
8562;SDS011;16392;52.508;13.468;2024-02-21T00:33:44;12.30;;;4.10;;
8562;SDS011;16392;52.508;13.468;2024-02-21T00:36:13;9.70;;;3.53;;
8562;SDS011;16392;52.508;13.468;2024-02-21T00:38:39;7.55;;;3.65;;
8562;SDS011;16392;52.508;13.468;2024-02-21T00:41:06;9.60;;;3.60;;
8562;SDS011;16392;52.508;13.468;2024-02-21T00:43:33;5.05;;;2.95;;
8562;SDS011;16392;52.508;13.468;2024-02-21T00:46:00;13.43;;;3.92;;
8562;SDS011;16392;52.508;13.468;2024-02-21T00:48:26;12.18;;;3.65;;
8562;SDS011;16392;52.508;13.468;2024-02-21T00:50:55;13.43;;;3.20;;
8562;SDS011;16392;52.508;13.468;2024-02-21T00:53:22;8.25;;;3.33;;
8562;SDS011;16392;52.508;13.468;2024-02-21T00:55:49;8.63;;;3.40;;
8562;SDS011;16392;52.508;13.468;2024-02-21T00:58:16;8.55;;;3.15;;
8562;SDS011;16392;52.508;13.468;2024-02-21T01:00:42;10.18;;;3.22;;
8562;SDS011;16392;52.508;13.468;2024-02-21T01:03:09;7.68;;;2.95;;
8562;SDS011;16392;52.508;13.468;2024-02-21T01:05:37;6.75;;;3.17;;
8562;SDS011;16392;52.508;13.468;2024-02-21T01:08:05;11.63;;;3.17;;
8562;SDS011;16392;52.508;13.468;2024-02-21T01:10:32;10.98;;;3.50;;
8562;SDS011;16392;52.508;13.468;2024-02-21T01:12:59;11.23;;;3.35;;
8562;SDS011;16392;52.508;13.468;2024-02-21T01:15:25;9.88;;;3.25;;
8562;SDS011;16392;52.508;13.468;2024-02-21T01:17:53;7.13;;;3.10;;
8562;SDS011;16392;52.508;13.468;2024-02-21T01:20:20;5.45;;;2.85;;
8562;SDS011;16392;52.508;13.468;2024-02-21T01:22:47;12.38;;;3.22;;
8562;SDS011;16392;52.508;13.468;2024-02-21T01:25:15;8.70;;;2.67;;
8562;SDS011;16392;52.508;13.468;2024-02-21T01:27:43;7.55;;;3.00;;
8562;SDS011;16392;52.508;13.468;2024-02-21T01:30:10;11.38;;;3.10;;
8562;SDS011;16392;52.508;13.468;2024-02-21T01:32:37;6.72;;;3.00;;
8562;SDS011;16392;52.508;13.468;2024-02-21T01:35:04;5.85;;;3.08;;
8562;SDS011;16392;52.508;13.468;2024-02-21T01:37:33;10.57;;;3.05;;
8562;SDS011;16392;52.508;13.468;2024-02-21T01:39:59;9.30;;;3.10;;
8562;SDS011;16392;52.508;13.468;2024-02-21T01:42:29;8.45;;;2.70;;
8562;SDS011;16392;52.508;13.468;2024-02-21T01:44:56;6.55;;;2.58;;
8562;SDS011;16392;52.508;13.468;2024-02-21T01:47:22;11.10;;;3.45;;
8562;SDS011;16392;52.508;13.468;2024-02-21T01:49:49;9.02;;;2.95;;
8562;SDS011;16392;52.508;13.468;2024-02-21T01:52:16;8.50;;;3.35;;
8562;SDS011;16392;52.508;13.468;2024-02-21T01:54:44;7.55;;;2.78;;
8562;SDS011;16392;52.508;13.468;2024-02-21T01:57:13;5.35;;;2.80;;
8562;SDS011;16392;52.508;13.468;2024-02-21T01:59:42;6.15;;;2.95;;
8562;SDS011;16392;52.508;13.468;2024-02-21T02:02:09;13.63;;;3.35;;
8562;SDS011;16392;52.508;13.468;2024-02-21T02:04:37;3.88;;;2.83;;
8562;SDS011;16392;52.508;13.468;2024-02-21T02:07:04;8.70;;;3.10;;
8562;SDS011;16392;52.508;13.468;2024-02-21T02:09:34;8.20;;;3.05;;
8562;SDS011;16392;52.508;13.468;2024-02-21T02:12:01;7.10;;;3.17;;
8562;SDS011;16392;52.508;13.468;2024-02-21T02:14:28;8.73;;;3.03;;
8562;SDS011;16392;52.508;13.468;2024-02-21T02:16:56;14.52;;;3.03;;
8562;SDS011;16392;52.508;13.468;2024-02-21T02:19:23;12.00;;;2.63;;
8562;SDS011;16392;52.508;13.468;2024-02-21T02:21:51;10.70;;;2.92;;
8562;SDS011;16392;52.508;13.468;2024-02-21T02:24:23;9.80;;;2.85;;
8562;SDS011;16392;52.508;13.468;2024-02-21T02:26:51;10.43;;;3.15;;
8562;SDS011;16392;52.508;13.468;2024-02-21T02:29:18;8.88;;;3.13;;
8562;SDS011;16392;52.508;13.468;2024-02-21T02:31:46;7.68;;;2.45;;
8562;SDS011;16392;52.508;13.468;2024-02-21T02:34:13;8.73;;;3.47;;
8562;SDS011;16392;52.508;13.468;2024-02-21T02:36:39;10.68;;;3.15;;
8562;SDS011;16392;52.508;13.468;2024-02-21T02:39:06;12.52;;;3.25;;
8562;SDS011;16392;52.508;13.468;2024-02-21T02:41:35;7.57;;;3.10;;
8562;SDS011;16392;52.508;13.468;2024-02-21T02:44:02;11.13;;;3.40;;
8562;SDS011;16392;52.508;13.468;2024-02-21T02:46:30;11.75;;;4.30;;
8562;SDS011;16392;52.508;13.468;2024-02-21T02:48:56;11.23;;;3.10;;
8562;SDS011;16392;52.508;13.468;2024-02-21T02:51:23;8.32;;;2.60;;
8562;SDS011;16392;52.508;13.468;2024-02-21T02:53:49;8.10;;;2.90;;
8562;SDS011;16392;52.508;13.468;2024-02-21T02:56:16;7.95;;;3.42;;
8562;SDS011;16392;52.508;13.468;2024-02-21T02:58:44;9.95;;;3.83;;
8562;SDS011;16392;52.508;13.468;2024-02-21T03:01:11;9.25;;;3.78;;
8562;SDS011;16392;52.508;13.468;2024-02-21T03:03:39;10.98;;;3.60;;
8562;SDS011;16392;52.508;13.468;2024-02-21T03:06:06;9.43;;;4.05;;
8562;SDS011;16392;52.508;13.468;2024-02-21T03:08:34;7.43;;;3.25;;
8562;SDS011;16392;52.508;13.468;2024-02-21T03:11:02;12.05;;;3.97;;
8562;SDS011;16392;52.508;13.468;2024-02-21T03:13:29;8.52;;;3.92;;
8562;SDS011;16392;52.508;13.468;2024-02-21T03:15:57;8.07;;;4.18;;
8562;SDS011;16392;52.508;13.468;2024-02-21T03:18:24;9.57;;;3.38;;
8562;SDS011;16392;52.508;13.468;2024-02-21T03:20:50;7.85;;;4.22;;
8562;SDS011;16392;52.508;13.468;2024-02-21T03:23:17;5.35;;;3.38;;
8562;SDS011;16392;52.508;13.468;2024-02-21T03:25:44;5.35;;;2.85;;
8562;SDS011;16392;52.508;13.468;2024-02-21T03:28:11;8.98;;;3.50;;
8562;SDS011;16392;52.508;13.468;2024-02-21T03:30:40;9.10;;;3.67;;
8562;SDS011;16392;52.508;13.468;2024-02-21T03:33:14;17.15;;;4.38;;
8562;SDS011;16392;52.508;13.468;2024-02-21T03:35:40;9.82;;;3.20;;
8562;SDS011;16392;52.508;13.468;2024-02-21T03:38:07;10.13;;;3.95;;
8562;SDS011;16392;52.508;13.468;2024-02-21T03:40:34;8.63;;;3.70;;
8562;SDS011;16392;52.508;13.468;2024-02-21T03:43:01;14.25;;;4.88;;
8562;SDS011;16392;52.508;13.468;2024-02-21T03:45:28;10.55;;;4.63;;
8562;SDS011;16392;52.508;13.468;2024-02-21T03:47:54;9.30;;;4.10;;
8562;SDS011;16392;52.508;13.468;2024-02-21T03:50:23;18.73;;;4.95;;
8562;SDS011;16392;52.508;13.468;2024-02-21T03:52:51;9.82;;;4.65;;
8562;SDS011;16392;52.508;13.468;2024-02-21T03:55:17;13.73;;;3.70;;
8562;SDS011;16392;52.508;13.468;2024-02-21T03:57:44;8.82;;;4.00;;
8562;SDS011;16392;52.508;13.468;2024-02-21T04:00:11;8.00;;;3.58;;
8562;SDS011;16392;52.508;13.468;2024-02-21T04:02:41;9.55;;;4.00;;
8562;SDS011;16392;52.508;13.468;2024-02-21T04:05:08;12.55;;;4.55;;
8562;SDS011;16392;52.508;13.468;2024-02-21T04:07:38;17.80;;;5.55;;
8562;SDS011;16392;52.508;13.468;2024-02-21T04:10:05;10.73;;;4.25;;
8562;SDS011;16392;52.508;13.468;2024-02-21T04:12:33;8.82;;;3.80;;
8562;SDS011;16392;52.508;13.468;2024-02-21T04:14:59;11.75;;;4.53;;
8562;SDS011;16392;52.508;13.468;2024-02-21T04:17:26;9.75;;;4.28;;
8562;SDS011;16392;52.508;13.468;2024-02-21T04:19:53;10.13;;;4.15;;
8562;SDS011;16392;52.508;13.468;2024-02-21T04:22:30;11.35;;;4.50;;
8562;SDS011;16392;52.508;13.468;2024-02-21T04:25:00;5.78;;;3.63;;
8562;SDS011;16392;52.508;13.468;2024-02-21T04:27:27;8.35;;;4.60;;
8562;SDS011;16392;52.508;13.468;2024-02-21T04:29:53;12.88;;;5.05;;
8562;SDS011;16392;52.508;13.468;2024-02-21T04:32:21;11.43;;;4.10;;
8562;SDS011;16392;52.508;13.468;2024-02-21T04:34:47;12.88;;;4.57;;
8562;SDS011;16392;52.508;13.468;2024-02-21T04:37:14;9.85;;;4.97;;
8562;SDS011;16392;52.508;13.468;2024-02-21T04:39:43;9.77;;;3.95;;
8562;SDS011;16392;52.508;13.468;2024-02-21T04:42:11;9.45;;;3.63;;
8562;SDS011;16392;52.508;13.468;2024-02-21T04:44:38;16.90;;;5.55;;
8562;SDS011;16392;52.508;13.468;2024-02-21T04:47:04;10.65;;;4.70;;
8562;SDS011;16392;52.508;13.468;2024-02-21T04:49:32;9.88;;;4.00;;
8562;SDS011;16392;52.508;13.468;2024-02-21T04:51:59;11.20;;;4.22;;
8562;SDS011;16392;52.508;13.468;2024-02-21T04:54:26;12.68;;;5.35;;
8562;SDS011;16392;52.508;13.468;2024-02-21T04:56:53;7.45;;;3.75;;
8562;SDS011;16392;52.508;13.468;2024-02-21T04:59:21;10.90;;;4.63;;
8562;SDS011;16392;52.508;13.468;2024-02-21T05:01:48;13.40;;;4.97;;
8562;SDS011;16392;52.508;13.468;2024-02-21T05:04:14;13.35;;;5.00;;
8562;SDS011;16392;52.508;13.468;2024-02-21T05:06:41;11.13;;;4.28;;
8562;SDS011;16392;52.508;13.468;2024-02-21T05:09:08;11.05;;;4.55;;
8562;SDS011;16392;52.508;13.468;2024-02-21T05:11:36;12.75;;;5.25;;
8562;SDS011;16392;52.508;13.468;2024-02-21T05:14:03;18.85;;;5.93;;
8562;SDS011;16392;52.508;13.468;2024-02-21T05:16:31;9.98;;;4.55;;
8562;SDS011;16392;52.508;13.468;2024-02-21T05:18:58;12.02;;;4.43;;
8562;SDS011;16392;52.508;13.468;2024-02-21T05:21:25;15.30;;;4.65;;
8562;SDS011;16392;52.508;13.468;2024-02-21T05:23:53;13.88;;;5.32;;
8562;SDS011;16392;52.508;13.468;2024-02-21T05:26:20;17.25;;;4.95;;
8562;SDS011;16392;52.508;13.468;2024-02-21T05:28:47;12.10;;;4.82;;
8562;SDS011;16392;52.508;13.468;2024-02-21T05:31:15;11.68;;;5.18;;
8562;SDS011;16392;52.508;13.468;2024-02-21T05:33:43;15.55;;;5.30;;
8562;SDS011;16392;52.508;13.468;2024-02-21T05:36:10;10.63;;;4.03;;
8562;SDS011;16392;52.508;13.468;2024-02-21T05:38:37;10.93;;;4.88;;
8562;SDS011;16392;52.508;13.468;2024-02-21T05:41:04;11.30;;;5.07;;
8562;SDS011;16392;52.508;13.468;2024-02-21T05:43:33;13.55;;;4.95;;
8562;SDS011;16392;52.508;13.468;2024-02-21T05:45:59;13.27;;;4.80;;
8562;SDS011;16392;52.508;13.468;2024-02-21T05:48:26;13.88;;;4.30;;
8562;SDS011;16392;52.508;13.468;2024-02-21T05:50:55;10.25;;;4.55;;
8562;SDS011;16392;52.508;13.468;2024-02-21T05:53:22;13.23;;;4.40;;
8562;SDS011;16392;52.508;13.468;2024-02-21T05:55:48;11.30;;;5.05;;
8562;SDS011;16392;52.508;13.468;2024-02-21T05:58:15;8.50;;;4.38;;
8562;SDS011;16392;52.508;13.468;2024-02-21T06:00:42;12.75;;;5.47;;
8562;SDS011;16392;52.508;13.468;2024-02-21T06:03:08;14.38;;;4.38;;
8562;SDS011;16392;52.508;13.468;2024-02-21T06:05:36;11.57;;;4.88;;
8562;SDS011;16392;52.508;13.468;2024-02-21T06:08:05;9.15;;;4.93;;
8562;SDS011;16392;52.508;13.468;2024-02-21T06:10:33;13.75;;;5.13;;
8562;SDS011;16392;52.508;13.468;2024-02-21T06:13:00;10.13;;;4.57;;
8562;SDS011;16392;52.508;13.468;2024-02-21T06:15:27;13.35;;;4.90;;
8562;SDS011;16392;52.508;13.468;2024-02-21T06:17:54;13.93;;;5.53;;
8562;SDS011;16392;52.508;13.468;2024-02-21T06:20:21;12.77;;;5.05;;
8562;SDS011;16392;52.508;13.468;2024-02-21T06:22:47;10.45;;;5.30;;
8562;SDS011;16392;52.508;13.468;2024-02-21T06:25:15;13.95;;;4.43;;
8562;SDS011;16392;52.508;13.468;2024-02-21T06:27:42;16.48;;;6.28;;
8562;SDS011;16392;52.508;13.468;2024-02-21T06:30:10;12.48;;;4.97;;
8562;SDS011;16392;52.508;13.468;2024-02-21T06:32:37;11.90;;;4.18;;
8562;SDS011;16392;52.508;13.468;2024-02-21T06:35:04;12.75;;;4.40;;
8562;SDS011;16392;52.508;13.468;2024-02-21T06:37:31;11.82;;;4.50;;
8562;SDS011;16392;52.508;13.468;2024-02-21T06:39:58;11.75;;;5.10;;
8562;SDS011;16392;52.508;13.468;2024-02-21T06:42:27;15.00;;;4.70;;
8562;SDS011;16392;52.508;13.468;2024-02-21T06:44:54;10.13;;;5.00;;
8562;SDS011;16392;52.508;13.468;2024-02-21T06:47:22;16.60;;;4.90;;
8562;SDS011;16392;52.508;13.468;2024-02-21T06:49:49;20.92;;;6.47;;
8562;SDS011;16392;52.508;13.468;2024-02-21T06:52:17;15.50;;;5.47;;
8562;SDS011;16392;52.508;13.468;2024-02-21T06:54:45;9.63;;;4.72;;
8562;SDS011;16392;52.508;13.468;2024-02-21T06:57:12;12.25;;;5.35;;
8562;SDS011;16392;52.508;13.468;2024-02-21T06:59:42;15.68;;;4.90;;
8562;SDS011;16392;52.508;13.468;2024-02-21T07:02:09;13.13;;;5.05;;
8562;SDS011;16392;52.508;13.468;2024-02-21T07:04:35;14.65;;;5.75;;
8562;SDS011;16392;52.508;13.468;2024-02-21T07:07:02;15.35;;;5.30;;
8562;SDS011;16392;52.508;13.468;2024-02-21T07:09:29;8.82;;;4.97;;
8562;SDS011;16392;52.508;13.468;2024-02-21T07:11:59;11.32;;;4.80;;
8562;SDS011;16392;52.508;13.468;2024-02-21T07:14:27;9.00;;;5.25;;
8562;SDS011;16392;52.508;13.468;2024-02-21T07:16:56;11.63;;;5.20;;
8562;SDS011;16392;52.508;13.468;2024-02-21T07:19:23;16.90;;;5.38;;
8562;SDS011;16392;52.508;13.468;2024-02-21T07:21:51;11.63;;;5.70;;
8562;SDS011;16392;52.508;13.468;2024-02-21T07:24:18;11.45;;;5.00;;
8562;SDS011;16392;52.508;13.468;2024-02-21T07:26:45;12.85;;;5.43;;
8562;SDS011;16392;52.508;13.468;2024-02-21T07:29:12;11.98;;;5.05;;
8562;SDS011;16392;52.508;13.468;2024-02-21T07:31:40;10.55;;;4.88;;
8562;SDS011;16392;52.508;13.468;2024-02-21T07:34:08;18.85;;;5.05;;
8562;SDS011;16392;52.508;13.468;2024-02-21T07:36:36;11.77;;;4.40;;
8562;SDS011;16392;52.508;13.468;2024-02-21T07:39:03;11.55;;;4.55;;
8562;SDS011;16392;52.508;13.468;2024-02-21T07:41:30;9.27;;;4.47;;
8562;SDS011;16392;52.508;13.468;2024-02-21T07:43:59;11.05;;;4.82;;
8562;SDS011;16392;52.508;13.468;2024-02-21T07:46:26;9.93;;;4.63;;
8562;SDS011;16392;52.508;13.468;2024-02-21T07:48:52;9.05;;;4.15;;
8562;SDS011;16392;52.508;13.468;2024-02-21T07:51:21;11.90;;;5.22;;
8562;SDS011;16392;52.508;13.468;2024-02-21T07:53:48;10.75;;;4.70;;
8562;SDS011;16392;52.508;13.468;2024-02-21T07:56:16;10.07;;;4.18;;
8562;SDS011;16392;52.508;13.468;2024-02-21T07:58:43;8.80;;;4.05;;
8562;SDS011;16392;52.508;13.468;2024-02-21T08:01:17;11.10;;;4.70;;
8562;SDS011;16392;52.508;13.468;2024-02-21T08:03:44;8.52;;;4.25;;
8562;SDS011;16392;52.508;13.468;2024-02-21T08:06:11;6.75;;;4.00;;
8562;SDS011;16392;52.508;13.468;2024-02-21T08:08:40;8.65;;;4.18;;
8562;SDS011;16392;52.508;13.468;2024-02-21T08:11:07;12.98;;;4.63;;
8562;SDS011;16392;52.508;13.468;2024-02-21T08:13:34;12.15;;;4.78;;
8562;SDS011;16392;52.508;13.468;2024-02-21T08:16:00;11.02;;;4.50;;
8562;SDS011;16392;52.508;13.468;2024-02-21T08:18:28;10.55;;;4.28;;
8562;SDS011;16392;52.508;13.468;2024-02-21T08:20:55;9.02;;;4.05;;
8562;SDS011;16392;52.508;13.468;2024-02-21T08:23:22;8.90;;;3.78;;
8562;SDS011;16392;52.508;13.468;2024-02-21T08:25:51;9.90;;;4.35;;
8562;SDS011;16392;52.508;13.468;2024-02-21T08:28:17;11.60;;;4.78;;
8562;SDS011;16392;52.508;13.468;2024-02-21T08:30:44;7.55;;;4.00;;
8562;SDS011;16392;52.508;13.468;2024-02-21T08:33:13;10.93;;;4.35;;
8562;SDS011;16392;52.508;13.468;2024-02-21T08:35:40;7.85;;;4.60;;
8562;SDS011;16392;52.508;13.468;2024-02-21T08:38:07;8.63;;;4.32;;
8562;SDS011;16392;52.508;13.468;2024-02-21T08:40:33;12.27;;;4.35;;
8562;SDS011;16392;52.508;13.468;2024-02-21T08:43:03;11.70;;;4.60;;
8562;SDS011;16392;52.508;13.468;2024-02-21T08:45:30;12.77;;;4.80;;
8562;SDS011;16392;52.508;13.468;2024-02-21T08:47:57;10.07;;;4.85;;
8562;SDS011;16392;52.508;13.468;2024-02-21T08:50:23;13.45;;;4.65;;
8562;SDS011;16392;52.508;13.468;2024-02-21T08:52:50;8.88;;;4.90;;
8562;SDS011;16392;52.508;13.468;2024-02-21T08:55:20;10.85;;;4.50;;
8562;SDS011;16392;52.508;13.468;2024-02-21T08:57:47;9.50;;;4.95;;
8562;SDS011;16392;52.508;13.468;2024-02-21T09:00:16;16.75;;;5.00;;
8562;SDS011;16392;52.508;13.468;2024-02-21T09:02:43;12.52;;;5.13;;
8562;SDS011;16392;52.508;13.468;2024-02-21T09:05:11;8.25;;;4.50;;
8562;SDS011;16392;52.508;13.468;2024-02-21T09:07:38;12.25;;;4.68;;
8562;SDS011;16392;52.508;13.468;2024-02-21T09:10:05;11.95;;;5.50;;
8562;SDS011;16392;52.508;13.468;2024-02-21T09:12:32;13.55;;;5.30;;
8562;SDS011;16392;52.508;13.468;2024-02-21T09:14:59;12.45;;;5.50;;
8562;SDS011;16392;52.508;13.468;2024-02-21T09:17:28;10.40;;;5.38;;
8562;SDS011;16392;52.508;13.468;2024-02-21T09:19:55;10.38;;;5.00;;
8562;SDS011;16392;52.508;13.468;2024-02-21T09:22:26;9.40;;;5.82;;
8562;SDS011;16392;52.508;13.468;2024-02-21T09:24:53;14.85;;;5.93;;
8562;SDS011;16392;52.508;13.468;2024-02-21T09:27:19;12.00;;;5.55;;
8562;SDS011;16392;52.508;13.468;2024-02-21T09:29:47;15.50;;;5.53;;
8562;SDS011;16392;52.508;13.468;2024-02-21T09:32:14;9.10;;;5.15;;
8562;SDS011;16392;52.508;13.468;2024-02-21T09:34:42;8.68;;;5.10;;
8562;SDS011;16392;52.508;13.468;2024-02-21T09:37:09;8.30;;;4.53;;
8562;SDS011;16392;52.508;13.468;2024-02-21T09:39:35;10.88;;;5.57;;
8562;SDS011;16392;52.508;13.468;2024-02-21T09:42:03;10.95;;;5.03;;
8562;SDS011;16392;52.508;13.468;2024-02-21T09:44:33;11.45;;;5.85;;
8562;SDS011;16392;52.508;13.468;2024-02-21T09:47:06;10.38;;;5.60;;
8562;SDS011;16392;52.508;13.468;2024-02-21T09:49:36;12.82;;;6.35;;
8562;SDS011;16392;52.508;13.468;2024-02-21T09:52:05;10.45;;;5.20;;
8562;SDS011;16392;52.508;13.468;2024-02-21T09:54:33;15.25;;;5.78;;
8562;SDS011;16392;52.508;13.468;2024-02-21T09:57:00;11.98;;;5.13;;
8562;SDS011;16392;52.508;13.468;2024-02-21T09:59:28;12.35;;;5.45;;
8562;SDS011;16392;52.508;13.468;2024-02-21T10:01:56;10.75;;;5.30;;
8562;SDS011;16392;52.508;13.468;2024-02-21T10:04:33;10.82;;;5.57;;
8562;SDS011;16392;52.508;13.468;2024-02-21T10:07:00;11.65;;;5.95;;
8562;SDS011;16392;52.508;13.468;2024-02-21T10:09:28;11.75;;;5.75;;
8562;SDS011;16392;52.508;13.468;2024-02-21T10:11:55;10.50;;;4.80;;
8562;SDS011;16392;52.508;13.468;2024-02-21T10:14:33;10.18;;;5.25;;
8562;SDS011;16392;52.508;13.468;2024-02-21T10:16:59;10.50;;;5.45;;
8562;SDS011;16392;52.508;13.468;2024-02-21T10:19:28;10.80;;;5.13;;
8562;SDS011;16392;52.508;13.468;2024-02-21T10:22:01;9.63;;;5.50;;
8562;SDS011;16392;52.508;13.468;2024-02-21T10:24:31;7.75;;;4.53;;
8562;SDS011;16392;52.508;13.468;2024-02-21T10:26:58;11.55;;;5.88;;
8562;SDS011;16392;52.508;13.468;2024-02-21T10:29:26;10.82;;;5.13;;
8562;SDS011;16392;52.508;13.468;2024-02-21T10:32:03;10.75;;;5.35;;
8562;SDS011;16392;52.508;13.468;2024-02-21T10:34:32;11.63;;;4.75;;
8562;SDS011;16392;52.508;13.468;2024-02-21T10:37:02;7.40;;;5.20;;
8562;SDS011;16392;52.508;13.468;2024-02-21T10:39:30;10.52;;;5.10;;
8562;SDS011;16392;52.508;13.468;2024-02-21T10:41:59;9.38;;;5.30;;
8562;SDS011;16392;52.508;13.468;2024-02-21T10:44:27;12.18;;;5.15;;
8562;SDS011;16392;52.508;13.468;2024-02-21T10:46:56;10.73;;;5.10;;
8562;SDS011;16392;52.508;13.468;2024-02-21T10:49:24;9.80;;;5.40;;
8562;SDS011;16392;52.508;13.468;2024-02-21T10:51:54;12.07;;;5.15;;
8562;SDS011;16392;52.508;13.468;2024-02-21T10:57:15;12.13;;;5.05;;
8562;SDS011;16392;52.508;13.468;2024-02-21T10:59:44;7.70;;;4.60;;
8562;SDS011;16392;52.508;13.468;2024-02-21T11:02:12;8.07;;;5.18;;
8562;SDS011;16392;52.508;13.468;2024-02-21T11:04:39;11.15;;;4.63;;
8562;SDS011;16392;52.508;13.468;2024-02-21T11:07:07;9.90;;;4.40;;
8562;SDS011;16392;52.508;13.468;2024-02-21T11:09:35;9.50;;;4.00;;
8562;SDS011;16392;52.508;13.468;2024-02-21T11:12:04;10.02;;;5.13;;
8562;SDS011;16392;52.508;13.468;2024-02-21T11:14:33;13.20;;;4.35;;
8562;SDS011;16392;52.508;13.468;2024-02-21T11:17:14;8.27;;;4.72;;
8562;SDS011;16392;52.508;13.468;2024-02-21T11:19:41;11.02;;;4.22;;
8562;SDS011;16392;52.508;13.468;2024-02-21T11:22:13;11.05;;;4.80;;
8562;SDS011;16392;52.508;13.468;2024-02-21T11:24:43;9.57;;;4.80;;
8562;SDS011;16392;52.508;13.468;2024-02-21T11:27:12;8.77;;;4.65;;
8562;SDS011;16392;52.508;13.468;2024-02-21T11:29:40;7.90;;;4.28;;
8562;SDS011;16392;52.508;13.468;2024-02-21T11:32:09;6.22;;;3.65;;
8562;SDS011;16392;52.508;13.468;2024-02-21T11:34:37;9.00;;;4.30;;
8562;SDS011;16392;52.508;13.468;2024-02-21T11:37:12;5.93;;;3.97;;
8562;SDS011;16392;52.508;13.468;2024-02-21T11:39:40;6.68;;;3.80;;
8562;SDS011;16392;52.508;13.468;2024-02-21T11:42:08;4.80;;;3.58;;
8562;SDS011;16392;52.508;13.468;2024-02-21T11:44:37;4.32;;;3.80;;
8562;SDS011;16392;52.508;13.468;2024-02-21T11:47:05;7.68;;;3.85;;
8562;SDS011;16392;52.508;13.468;2024-02-21T11:49:35;5.38;;;2.95;;
8562;SDS011;16392;52.508;13.468;2024-02-21T11:52:03;6.10;;;3.20;;
8562;SDS011;16392;52.508;13.468;2024-02-21T11:54:31;4.28;;;3.20;;
8562;SDS011;16392;52.508;13.468;2024-02-21T11:56:58;7.78;;;3.30;;
8562;SDS011;16392;52.508;13.468;2024-02-21T11:59:25;6.78;;;3.85;;
8562;SDS011;16392;52.508;13.468;2024-02-21T12:01:53;7.72;;;3.78;;
8562;SDS011;16392;52.508;13.468;2024-02-21T12:04:20;6.00;;;2.92;;
8562;SDS011;16392;52.508;13.468;2024-02-21T12:06:51;5.07;;;3.15;;
8562;SDS011;16392;52.508;13.468;2024-02-21T12:09:22;6.53;;;3.10;;
8562;SDS011;16392;52.508;13.468;2024-02-21T12:11:56;5.78;;;2.72;;
8562;SDS011;16392;52.508;13.468;2024-02-21T12:14:24;5.82;;;2.90;;
8562;SDS011;16392;52.508;13.468;2024-02-21T12:16:54;4.55;;;2.42;;
8562;SDS011;16392;52.508;13.468;2024-02-21T12:19:21;4.95;;;2.70;;
8562;SDS011;16392;52.508;13.468;2024-02-21T12:21:48;5.50;;;3.17;;
8562;SDS011;16392;52.508;13.468;2024-02-21T12:24:17;5.75;;;2.80;;
8562;SDS011;16392;52.508;13.468;2024-02-21T12:26:47;5.88;;;2.95;;
8562;SDS011;16392;52.508;13.468;2024-02-21T12:29:14;5.13;;;3.35;;
8562;SDS011;16392;52.508;13.468;2024-02-21T12:31:41;4.35;;;2.63;;
8562;SDS011;16392;52.508;13.468;2024-02-21T12:34:09;10.25;;;3.50;;
8562;SDS011;16392;52.508;13.468;2024-02-21T12:36:40;5.07;;;2.97;;
8562;SDS011;16392;52.508;13.468;2024-02-21T12:39:08;5.47;;;2.65;;
8562;SDS011;16392;52.508;13.468;2024-02-21T12:41:35;5.97;;;2.78;;
8562;SDS011;16392;52.508;13.468;2024-02-21T12:44:03;5.55;;;2.78;;
8562;SDS011;16392;52.508;13.468;2024-02-21T12:46:32;3.83;;;2.55;;
8562;SDS011;16392;52.508;13.468;2024-02-21T12:48:58;3.20;;;2.42;;
8562;SDS011;16392;52.508;13.468;2024-02-21T12:51:27;6.47;;;2.55;;
8562;SDS011;16392;52.508;13.468;2024-02-21T12:53:54;3.83;;;2.30;;
8562;SDS011;16392;52.508;13.468;2024-02-21T12:56:22;2.95;;;2.38;;
8562;SDS011;16392;52.508;13.468;2024-02-21T12:58:51;4.57;;;2.50;;
8562;SDS011;16392;52.508;13.468;2024-02-21T13:01:19;5.60;;;2.55;;
8562;SDS011;16392;52.508;13.468;2024-02-21T13:03:46;2.83;;;2.17;;
8562;SDS011;16392;52.508;13.468;2024-02-21T13:06:13;4.60;;;2.13;;
8562;SDS011;16392;52.508;13.468;2024-02-21T13:08:42;5.63;;;2.63;;
8562;SDS011;16392;52.508;13.468;2024-02-21T13:11:10;4.80;;;2.53;;
8562;SDS011;16392;52.508;13.468;2024-02-21T13:13:38;4.03;;;2.08;;
8562;SDS011;16392;52.508;13.468;2024-02-21T13:16:05;4.88;;;2.25;;
8562;SDS011;16392;52.508;13.468;2024-02-21T13:18:34;3.88;;;2.30;;
8562;SDS011;16392;52.508;13.468;2024-02-21T13:21:03;5.32;;;2.38;;
8562;SDS011;16392;52.508;13.468;2024-02-21T13:23:31;2.63;;;1.88;;
8562;SDS011;16392;52.508;13.468;2024-02-21T13:26:01;4.07;;;2.28;;
8562;SDS011;16392;52.508;13.468;2024-02-21T13:28:29;4.18;;;2.17;;
8562;SDS011;16392;52.508;13.468;2024-02-21T13:30:56;4.18;;;2.50;;
8562;SDS011;16392;52.508;13.468;2024-02-21T13:33:22;6.00;;;2.65;;
8562;SDS011;16392;52.508;13.468;2024-02-21T13:35:49;3.55;;;2.28;;
8562;SDS011;16392;52.508;13.468;2024-02-21T13:38:17;7.88;;;2.35;;
8562;SDS011;16392;52.508;13.468;2024-02-21T13:40:44;7.28;;;2.97;;
8562;SDS011;16392;52.508;13.468;2024-02-21T13:43:13;6.55;;;3.08;;
8562;SDS011;16392;52.508;13.468;2024-02-21T13:45:39;5.03;;;2.55;;
8562;SDS011;16392;52.508;13.468;2024-02-21T13:48:09;4.65;;;2.80;;
8562;SDS011;16392;52.508;13.468;2024-02-21T13:50:39;9.50;;;3.25;;
8562;SDS011;16392;52.508;13.468;2024-02-21T13:53:08;6.30;;;2.97;;
8562;SDS011;16392;52.508;13.468;2024-02-21T13:55:35;6.95;;;2.83;;
8562;SDS011;16392;52.508;13.468;2024-02-21T13:58:02;4.25;;;2.97;;
8562;SDS011;16392;52.508;13.468;2024-02-21T14:00:31;10.38;;;2.95;;
8562;SDS011;16392;52.508;13.468;2024-02-21T14:03:01;6.25;;;3.10;;
8562;SDS011;16392;52.508;13.468;2024-02-21T14:05:28;4.00;;;2.40;;
8562;SDS011;16392;52.508;13.468;2024-02-21T14:07:55;5.38;;;2.88;;
8562;SDS011;16392;52.508;13.468;2024-02-21T14:10:22;6.40;;;2.97;;
8562;SDS011;16392;52.508;13.468;2024-02-21T14:12:49;4.65;;;2.50;;
8562;SDS011;16392;52.508;13.468;2024-02-21T14:15:16;5.78;;;2.67;;
8562;SDS011;16392;52.508;13.468;2024-02-21T14:17:44;5.18;;;2.45;;
8562;SDS011;16392;52.508;13.468;2024-02-21T14:20:11;6.53;;;2.53;;
8562;SDS011;16392;52.508;13.468;2024-02-21T14:22:39;5.43;;;2.55;;
8562;SDS011;16392;52.508;13.468;2024-02-21T14:25:06;7.85;;;2.50;;
8562;SDS011;16392;52.508;13.468;2024-02-21T14:27:33;5.28;;;2.30;;
8562;SDS011;16392;52.508;13.468;2024-02-21T14:30:01;3.28;;;2.10;;
8562;SDS011;16392;52.508;13.468;2024-02-21T14:32:28;4.82;;;2.97;;
8562;SDS011;16392;52.508;13.468;2024-02-21T14:34:57;3.63;;;2.45;;
8562;SDS011;16392;52.508;13.468;2024-02-21T14:37:24;5.45;;;2.60;;
8562;SDS011;16392;52.508;13.468;2024-02-21T14:39:53;3.88;;;2.35;;
8562;SDS011;16392;52.508;13.468;2024-02-21T14:42:19;6.82;;;2.42;;
8562;SDS011;16392;52.508;13.468;2024-02-21T14:44:47;4.78;;;2.55;;
8562;SDS011;16392;52.508;13.468;2024-02-21T14:47:14;4.38;;;2.35;;